Time;durP1;ratioP1;P1;durP2;ratioP2;P2;SDS_P1;SDS_P2;PMS_P1;PMS_P2;Temp;Humidity;BMP_temperature;BMP_pressure;BME280_temperature;BME280_humidity;BME280_pressure;Samples;Min_cycle;Max_cycle;Signal;HPM_P1;HPM_P2
2022/01/23 00:01:47;;;;;;;15.93;11.25;;;5.60;99.90;;;;;;5033553;28;20261;-56
2022/01/23 00:04:14;;;;;;;16.98;10.93;;;5.50;99.90;;;;;;5033635;28;20178;-56
2022/01/23 00:06:45;;;;;;;17.15;10.32;;;5.50;99.90;;;;;;5033335;28;20209;-56
2022/01/23 00:09:14;;;;;;;13.70;9.18;;;5.50;99.90;;;;;;5034194;28;20187;-55
2022/01/23 00:11:47;;;;;;;14.50;10.20;;;5.50;99.90;;;;;;5033393;28;20262;-56
2022/01/23 00:17:17;;;;;;;13.15;9.70;;;5.40;99.90;;;;;;5035868;28;20256;-57
2022/01/23 00:19:45;;;;;;;14.63;10.10;;;5.40;99.90;;;;;;5036340;28;20210;-56
2022/01/23 00:22:13;;;;;;;13.35;10.10;;;5.40;99.90;;;;;;5034743;28;20612;-56
2022/01/23 00:32:52;;;;;;;20.50;13.38;;;5.40;99.90;;;;;;5035641;28;20218;-56
2022/01/23 00:35:19;;;;;;;20.33;14.00;;;5.40;99.90;;;;;;5037795;28;20212;-56
2022/01/23 00:37:48;;;;;;;18.45;12.90;;;5.40;99.90;;;;;;5037226;28;20209;-56
2022/01/23 00:40:16;;;;;;;18.48;12.60;;;5.30;99.90;;;;;;5037330;28;20206;-55
2022/01/23 00:42:43;;;;;;;17.83;12.90;;;5.40;99.90;;;;;;5037690;28;20222;-57
2022/01/23 00:47:55;;;;;;;18.63;13.65;;;5.30;99.90;;;;;;5035397;28;20202;-56
2022/01/23 00:50:22;;;;;;;17.48;13.00;;;5.30;99.90;;;;;;5037934;28;20580;-57
2022/01/23 00:52:50;;;;;;;16.65;13.20;;;5.40;99.90;;;;;;5038022;28;20230;-57
2022/01/23 00:55:18;;;;;;;18.45;12.48;;;5.40;99.90;;;;;;5037534;28;20229;-56
2022/01/23 00:57:45;;;;;;;20.58;13.23;;;5.40;99.90;;;;;;5037348;28;20202;-56
2022/01/23 01:00:13;;;;;;;16.88;12.85;;;5.40;99.90;;;;;;5037398;28;20230;-56
2022/01/23 01:02:40;;;;;;;13.70;10.30;;;5.40;99.90;;;;;;5037968;28;20226;-57
2022/01/23 01:05:08;;;;;;;18.30;12.20;;;5.40;99.90;;;;;;5039090;28;20575;-56
2022/01/23 01:07:35;;;;;;;17.80;11.05;;;5.40;99.90;;;;;;5039102;28;20209;-56
2022/01/23 01:10:09;;;;;;;15.63;11.45;;;5.40;99.90;;;;;;5039421;28;20213;-55
2022/01/23 01:12:40;;;;;;;12.60;10.32;;;5.40;99.90;;;;;;5036964;28;20245;-56
2022/01/23 01:31:56;;;;;;;15.73;11.27;;;5.40;99.90;;;;;;5036036;28;20225;-55
2022/01/23 01:34:31;;;;;;;19.20;12.57;;;5.40;99.90;;;;;;5036026;28;20620;-55
2022/01/23 01:36:59;;;;;;;15.90;11.20;;;5.30;99.90;;;;;;5035205;28;20280;-55
2022/01/23 01:39:28;;;;;;;19.80;11.73;;;5.40;99.90;;;;;;5035952;28;20631;-55
2022/01/23 01:41:57;;;;;;;18.85;12.20;;;5.30;99.90;;;;;;5035454;28;20640;-55
2022/01/23 01:44:25;;;;;;;15.85;10.25;;;5.30;99.90;;;;;;5035592;28;20198;-55
2022/01/23 01:46:52;;;;;;;14.27;10.90;;;5.30;99.90;;;;;;5035404;28;20203;-54
2022/01/23 01:49:27;;;;;;;14.23;10.25;;;5.30;99.90;;;;;;5035921;28;20575;-55
2022/01/23 01:51:55;;;;;;;15.77;9.93;;;5.30;99.90;;;;;;5036116;28;20222;-55
2022/01/23 01:54:24;;;;;;;17.67;12.00;;;5.30;99.90;;;;;;5036665;28;20253;-55
2022/01/23 01:56:54;;;;;;;14.50;11.05;;;5.30;99.90;;;;;;5036755;28;20233;-55
2022/01/23 02:10:17;;;;;;;16.08;10.02;;;5.20;99.90;;;;;;5036001;28;20186;-55
2022/01/23 02:51:32;;;;;;;12.15;10.00;;;5.30;99.90;;;;;;5034725;28;20262;-54
2022/01/23 02:54:23;;;;;;;16.60;10.68;;;5.30;99.90;;;;;;5035214;28;20214;-54
2022/01/23 02:56:52;;;;;;;15.90;9.48;;;5.30;99.90;;;;;;5034873;28;20290;-54
2022/01/23 02:59:24;;;;;;;14.88;9.85;;;5.30;99.90;;;;;;5035318;28;20206;-54
2022/01/23 03:02:08;;;;;;;13.00;10.57;;;5.30;99.90;;;;;;5035227;28;20226;-54
2022/01/23 03:04:39;;;;;;;14.02;9.13;;;5.30;99.90;;;;;;5034702;28;20179;-54
2022/01/23 03:07:17;;;;;;;16.50;9.65;;;5.30;99.90;;;;;;5035019;28;20187;-55
2022/01/23 03:09:57;;;;;;;11.52;9.07;;;5.20;99.90;;;;;;5034522;28;20281;-54
2022/01/23 03:15:12;;;;;;;14.63;9.70;;;5.20;99.90;;;;;;5034870;28;20218;-54
2022/01/23 03:26:13;;;;;;;11.90;9.30;;;5.20;99.90;;;;;;5035503;28;20178;-54
2022/01/23 03:29:01;;;;;;;12.57;10.00;;;5.20;99.90;;;;;;5034724;28;20236;-54
2022/01/23 03:31:32;;;;;;;14.80;9.65;;;5.20;99.90;;;;;;5034363;28;20218;-54
2022/01/23 03:33:59;;;;;;;13.15;8.82;;;5.20;99.90;;;;;;5034008;28;20260;-55
2022/01/23 03:36:26;;;;;;;16.13;10.48;;;5.20;99.90;;;;;;5034468;28;20214;-54
2022/01/23 03:38:53;;;;;;;14.35;9.95;;;5.20;99.90;;;;;;5034145;28;20202;-55
2022/01/23 03:41:21;;;;;;;15.38;10.32;;;5.20;99.90;;;;;;5034073;28;20202;-55
2022/01/23 03:43:49;;;;;;;13.65;8.20;;;5.20;99.90;;;;;;5033724;28;20202;-55
2022/01/23 03:46:46;;;;;;;10.80;9.20;;;5.20;99.90;;;;;;5033808;28;20630;-55
2022/01/23 03:49:33;;;;;;;10.80;8.98;;;5.20;99.90;;;;;;5033360;28;20217;-55
2022/01/23 03:52:02;;;;;;;14.50;10.35;;;5.10;99.90;;;;;;5033604;28;20230;-55
2022/01/23 03:54:30;;;;;;;11.18;9.73;;;5.10;99.90;;;;;;5033141;28;20226;-55
2022/01/23 03:57:01;;;;;;;13.30;9.65;;;5.10;99.90;;;;;;5033116;28;20693;-55
2022/01/23 03:59:29;;;;;;;13.68;9.38;;;5.10;99.90;;;;;;5033648;28;20197;-55
2022/01/23 04:01:56;;;;;;;15.57;9.80;;;5.10;99.90;;;;;;5032997;28;20226;-54
2022/01/23 04:04:37;;;;;;;16.42;10.68;;;5.10;99.90;;;;;;5033111;28;20198;-55
2022/01/23 04:09:13;;;;;;;13.70;9.47;;;5.10;99.90;;;;;;5106556;27;1395302;-55
2022/01/23 04:11:40;;;;;;;12.43;10.10;;;5.10;99.90;;;;;;5127884;28;20457;-55
2022/01/23 04:14:10;;;;;;;15.50;11.40;;;5.10;99.90;;;;;;5111119;28;20199;-55
2022/01/23 04:17:00;;;;;;;15.73;9.25;;;5.10;99.90;;;;;;5111629;28;20188;-54
2022/01/23 04:19:38;;;;;;;13.20;10.32;;;5.10;99.90;;;;;;5110986;28;20188;-54
2022/01/23 04:33:29;;;;;;;12.65;9.20;;;5.10;99.90;;;;;;5107400;28;20218;-56
2022/01/23 05:00:59;;;;;;;13.73;9.68;;;5.00;99.90;;;;;;5110774;28;20182;-57
2022/01/23 05:06:11;;;;;;;16.08;8.90;;;5.00;99.90;;;;;;5110455;28;20189;-57
2022/01/23 05:08:39;;;;;;;11.20;8.52;;;5.10;99.90;;;;;;5110559;28;20230;-56
2022/01/23 05:11:11;;;;;;;14.45;10.23;;;5.10;99.90;;;;;;5110609;28;20567;-57
2022/01/23 05:13:40;;;;;;;12.50;10.45;;;5.10;99.90;;;;;;5110460;28;20188;-56
2022/01/23 05:16:07;;;;;;;12.50;9.55;;;5.10;99.90;;;;;;5110491;28;20207;-56
2022/01/23 05:18:35;;;;;;;13.05;9.95;;;5.10;99.90;;;;;;5108061;28;20199;-57
2022/01/23 05:21:14;;;;;;;12.40;9.57;;;5.10;99.90;;;;;;5096186;28;20197;-56
2022/01/23 05:23:41;;;;;;;14.32;9.27;;;5.10;99.90;;;;;;5096158;28;20309;-56
2022/01/23 05:26:08;;;;;;;14.85;9.48;;;5.10;99.90;;;;;;5096308;28;20224;-56
2022/01/23 05:28:35;;;;;;;11.32;8.15;;;5.20;99.90;;;;;;5095793;28;20216;-56
2022/01/23 05:31:04;;;;;;;10.43;8.25;;;5.20;99.90;;;;;;5095800;28;20204;-56
2022/01/23 05:33:31;;;;;;;11.45;8.20;;;5.20;99.90;;;;;;5095649;28;20208;-56
2022/01/23 05:35:58;;;;;;;11.98;8.10;;;5.20;99.90;;;;;;5095928;28;20208;-57
2022/01/23 05:38:25;;;;;;;17.45;8.23;;;5.20;99.90;;;;;;5095860;28;20211;-57
2022/01/23 05:40:56;;;;;;;14.02;8.38;;;5.20;99.90;;;;;;5095726;28;20224;-56
2022/01/23 05:43:24;;;;;;;10.27;7.10;;;5.20;99.90;;;;;;5095403;28;20285;-56
2022/01/23 05:45:51;;;;;;;9.90;7.60;;;5.10;99.90;;;;;;5095661;28;20196;-56
2022/01/23 05:48:20;;;;;;;13.23;9.65;;;5.10;99.90;;;;;;5095275;28;20219;-56
2022/01/23 05:50:49;;;;;;;9.65;7.63;;;5.10;99.90;;;;;;5095567;28;20204;-55
2022/01/23 05:53:16;;;;;;;11.38;8.35;;;5.10;99.90;;;;;;5095170;28;20217;-57
2022/01/23 05:55:43;;;;;;;12.90;8.75;;;5.10;99.90;;;;;;5095486;28;20203;-56
2022/01/23 05:58:10;;;;;;;12.55;8.05;;;5.10;99.90;;;;;;5095441;28;20196;-57
2022/01/23 06:00:37;;;;;;;11.20;8.05;;;5.10;99.90;;;;;;5095399;28;20204;-57
2022/01/23 06:03:04;;;;;;;10.20;8.27;;;5.10;99.90;;;;;;5095083;28;20610;-57
2022/01/23 06:05:33;;;;;;;13.63;8.55;;;5.10;99.90;;;;;;5095100;28;20684;-57
2022/01/23 06:08:00;;;;;;;10.73;8.07;;;5.10;99.90;;;;;;5094893;28;20723;-56
2022/01/23 06:10:29;;;;;;;11.98;8.60;;;5.10;99.90;;;;;;5094859;28;20577;-56
2022/01/23 06:12:56;;;;;;;11.77;8.52;;;5.10;99.90;;;;;;5095077;28;20633;-57
2022/01/23 06:15:23;;;;;;;11.77;8.77;;;5.10;99.90;;;;;;5095178;28;20208;-57
2022/01/23 06:17:50;;;;;;;10.52;8.10;;;5.10;99.90;;;;;;5094692;28;20715;-56
2022/01/23 06:20:17;;;;;;;13.23;9.18;;;5.00;99.90;;;;;;5095257;28;20282;-56
2022/01/23 06:22:47;;;;;;;12.85;8.02;;;5.00;99.90;;;;;;5094710;28;20228;-57
2022/01/23 06:25:16;;;;;;;9.98;8.23;;;5.00;99.90;;;;;;5094768;28;20204;-55
2022/01/23 06:27:43;;;;;;;11.10;8.80;;;5.00;99.90;;;;;;5095478;28;20307;-57
2022/01/23 06:30:11;;;;;;;11.10;7.95;;;5.00;99.90;;;;;;5094814;28;20200;-56
2022/01/23 06:32:38;;;;;;;10.45;8.55;;;4.90;99.90;;;;;;5094262;28;20231;-56
2022/01/23 06:35:06;;;;;;;11.02;7.90;;;4.90;99.90;;;;;;5095274;28;20560;-57
2022/01/23 06:37:33;;;;;;;12.93;7.65;;;4.90;99.90;;;;;;5095101;28;20566;-56
2022/01/23 06:40:02;;;;;;;9.63;8.13;;;4.90;99.90;;;;;;5095116;28;20211;-56
2022/01/23 06:42:29;;;;;;;13.70;7.88;;;4.90;99.90;;;;;;5094552;28;20227;-57
2022/01/23 06:44:57;;;;;;;10.98;8.13;;;4.90;99.90;;;;;;5094680;28;20208;-56
2022/01/23 06:47:25;;;;;;;13.23;8.90;;;4.90;99.90;;;;;;5094425;28;20207;-57
2022/01/23 06:49:52;;;;;;;11.52;8.32;;;4.90;99.90;;;;;;5094709;28;20200;-57
2022/01/23 06:52:19;;;;;;;11.77;7.50;;;5.00;99.90;;;;;;5094417;28;20228;-56
2022/01/23 06:54:46;;;;;;;10.15;7.90;;;5.00;99.90;;;;;;5096507;28;20736;-56
2022/01/23 06:57:15;;;;;;;11.48;8.90;;;5.00;99.90;;;;;;5095221;28;20201;-55
2022/01/23 06:59:42;;;;;;;15.27;6.80;;;5.00;99.90;;;;;;5094344;28;20227;-56
2022/01/23 07:02:09;;;;;;;14.13;8.40;;;5.00;99.90;;;;;;5094328;28;20220;-55
2022/01/23 07:04:37;;;;;;;10.52;8.10;;;5.00;99.90;;;;;;5094472;28;20200;-55
2022/01/23 07:07:04;;;;;;;10.52;7.20;;;5.00;99.90;;;;;;5094213;28;20204;-56
2022/01/23 07:09:31;;;;;;;9.43;7.00;;;5.00;99.90;;;;;;5093759;28;20315;-57
2022/01/23 07:11:58;;;;;;;12.50;7.25;;;5.00;99.90;;;;;;5093937;28;20220;-58
2022/01/23 07:14:27;;;;;;;10.45;7.20;;;4.90;99.90;;;;;;5094012;28;20207;-58
2022/01/23 07:16:54;;;;;;;9.85;7.13;;;4.90;99.90;;;;;;5093584;28;20200;-56
2022/01/23 07:19:21;;;;;;;12.85;7.90;;;4.90;99.90;;;;;;5093533;28;20204;-56
2022/01/23 07:21:48;;;;;;;14.15;8.38;;;5.00;99.90;;;;;;5093971;28;20236;-57
2022/01/23 07:24:15;;;;;;;13.50;7.85;;;5.00;99.90;;;;;;5093820;28;20188;-56
2022/01/23 07:26:43;;;;;;;13.63;8.40;;;5.00;99.90;;;;;;5094202;28;20279;-56
2022/01/23 07:29:10;;;;;;;9.85;8.43;;;5.00;99.90;;;;;;5093738;28;20243;-57
2022/01/23 07:31:59;;;;;;;8.38;6.50;;;5.00;99.90;;;;;;5093690;28;20251;-57
2022/01/23 07:34:27;;;;;;;11.65;7.35;;;5.00;99.90;;;;;;5093964;28;20212;-56
2022/01/23 07:36:54;;;;;;;12.25;7.32;;;5.00;99.90;;;;;;5093964;28;20226;-57
2022/01/23 07:39:21;;;;;;;10.18;7.20;;;5.00;99.90;;;;;;5094126;28;20208;-57
2022/01/23 07:41:48;;;;;;;12.25;8.07;;;5.00;99.90;;;;;;5093402;28;20227;-57
2022/01/23 07:44:15;;;;;;;9.52;7.38;;;5.00;99.90;;;;;;5093548;28;20282;-57
2022/01/23 07:46:44;;;;;;;10.20;7.00;;;5.00;99.90;;;;;;5093752;28;20596;-58
2022/01/23 07:49:12;;;;;;;11.25;6.75;;;5.00;99.90;;;;;;5093569;28;20557;-58
2022/01/23 07:51:39;;;;;;;9.60;7.20;;;5.10;99.90;;;;;;5092962;28;20216;-57
2022/01/23 07:54:06;;;;;;;11.02;7.43;;;5.10;99.90;;;;;;5093045;28;20204;-56
2022/01/23 07:56:34;;;;;;;10.25;7.63;;;5.10;99.90;;;;;;5093254;28;20205;-56
2022/01/23 07:59:01;;;;;;;13.30;8.18;;;5.10;99.90;;;;;;5093216;28;20208;-57
2022/01/23 08:01:30;;;;;;;12.80;7.80;;;5.10;99.90;;;;;;5093055;28;20216;-55
2022/01/23 08:03:58;;;;;;;9.05;6.65;;;5.10;99.90;;;;;;5092926;28;20763;-57
2022/01/23 08:06:28;;;;;;;10.75;7.80;;;5.10;99.90;;;;;;5092728;28;20200;-57
2022/01/23 08:08:56;;;;;;;10.90;7.82;;;5.10;99.90;;;;;;5092762;28;20311;-56
2022/01/23 08:11:24;;;;;;;10.98;7.03;;;5.10;99.90;;;;;;5093076;28;20307;-56
2022/01/23 08:13:51;;;;;;;11.35;7.93;;;5.10;99.90;;;;;;5093037;28;20207;-57
2022/01/23 08:16:18;;;;;;;9.68;7.38;;;5.20;99.90;;;;;;5092740;28;20200;-58
2022/01/23 08:18:45;;;;;;;9.50;7.30;;;5.20;99.90;;;;;;5093129;28;20199;-57
2022/01/23 08:21:13;;;;;;;12.20;7.93;;;5.20;99.90;;;;;;5092525;28;20241;-57
2022/01/23 08:23:41;;;;;;;11.10;7.20;;;5.20;99.90;;;;;;5093263;28;20537;-57
2022/01/23 08:26:08;;;;;;;9.25;6.97;;;5.20;99.90;;;;;;5092989;28;20258;-58
2022/01/23 08:28:36;;;;;;;10.38;7.45;;;5.20;99.90;;;;;;5092646;28;20220;-57
2022/01/23 08:31:03;;;;;;;12.15;8.40;;;5.20;99.90;;;;;;5093825;28;20211;-57
2022/01/23 08:33:30;;;;;;;13.38;8.38;;;5.20;99.90;;;;;;5092794;28;20219;-57
2022/01/23 08:35:57;;;;;;;11.63;8.15;;;5.20;99.90;;;;;;5093085;28;20200;-58
2022/01/23 08:38:26;;;;;;;11.88;8.10;;;5.30;99.90;;;;;;5093444;28;20196;-57
2022/01/23 08:43:40;;;;;;;9.52;7.57;;;5.30;99.90;;;;;;5092002;28;20686;-58
2022/01/23 08:46:07;;;;;;;12.40;7.85;;;5.30;99.90;;;;;;5092859;28;20196;-58
2022/01/23 08:48:35;;;;;;;14.32;8.10;;;5.30;99.90;;;;;;5092836;28;20220;-59
2022/01/23 08:51:05;;;;;;;12.73;9.02;;;5.30;99.90;;;;;;5092921;28;20203;-58
2022/01/23 08:53:33;;;;;;;14.35;7.55;;;5.30;99.90;;;;;;5093925;28;20199;-58
2022/01/23 08:56:00;;;;;;;11.18;7.80;;;5.30;99.90;;;;;;5096750;28;20204;-60
2022/01/23 08:58:28;;;;;;;14.93;8.75;;;5.40;99.90;;;;;;5096330;28;20192;-59
2022/01/23 09:00:55;;;;;;;10.85;7.80;;;5.40;99.90;;;;;;5096744;28;20200;-57
2022/01/23 09:03:22;;;;;;;12.50;8.40;;;5.40;99.90;;;;;;5096913;28;20216;-58
2022/01/23 09:05:49;;;;;;;12.85;9.52;;;5.40;99.90;;;;;;5097414;28;20196;-58
2022/01/23 09:08:16;;;;;;;12.70;9.15;;;5.40;99.90;;;;;;5097648;28;20274;-58
2022/01/23 09:10:55;;;;;;;14.07;9.10;;;5.50;99.90;;;;;;5098375;28;20300;-58
2022/01/23 09:13:41;;;;;;;10.73;7.30;;;5.50;99.90;;;;;;5096921;28;20247;-56
2022/01/23 09:16:08;;;;;;;9.73;7.95;;;5.50;99.90;;;;;;5096829;28;20207;-56
2022/01/23 09:18:35;;;;;;;11.20;7.45;;;5.50;99.90;;;;;;5096216;28;20676;-58
2022/01/23 09:21:04;;;;;;;13.30;8.20;;;5.50;99.90;;;;;;5096450;28;20196;-58
2022/01/23 09:23:32;;;;;;;11.48;7.35;;;5.50;99.90;;;;;;5096642;28;20242;-55
2022/01/23 09:26:07;;;;;;;14.90;9.30;;;5.50;99.90;;;;;;5096182;28;20200;-59
2022/01/23 09:28:35;;;;;;;12.65;9.63;;;5.50;99.90;;;;;;5095905;28;20208;-57
2022/01/23 09:31:02;;;;;;;12.10;8.52;;;5.50;99.90;;;;;;5095968;28;20211;-56
2022/01/23 09:33:31;;;;;;;13.35;9.70;;;5.50;99.90;;;;;;5095869;28;20302;-58
2022/01/23 09:35:58;;;;;;;12.57;9.38;;;5.60;99.90;;;;;;5096342;28;20208;-57
2022/01/23 09:38:25;;;;;;;12.20;9.32;;;5.60;99.90;;;;;;5095483;28;20207;-57
2022/01/23 09:40:57;;;;;;;13.05;9.52;;;5.60;99.90;;;;;;5095859;28;20230;-58
2022/01/23 09:43:28;;;;;;;17.08;9.68;;;5.70;99.90;;;;;;5095757;28;20223;-58
2022/01/23 09:45:56;;;;;;;11.05;8.65;;;5.70;99.90;;;;;;5095882;28;20188;-56
2022/01/23 09:48:42;;;;;;;15.13;10.10;;;5.80;99.90;;;;;;5096390;28;20200;-60
2022/01/23 09:51:09;;;;;;;14.18;8.75;;;5.80;99.90;;;;;;5092357;28;20219;-58
2022/01/23 09:53:41;;;;;;;13.38;9.38;;;5.80;99.90;;;;;;5095606;28;20203;-60
2022/01/23 09:56:10;;;;;;;13.32;9.35;;;5.80;99.90;;;;;;5096418;28;20211;-58
2022/01/23 09:58:39;;;;;;;14.65;9.38;;;5.80;99.90;;;;;;5096163;28;20204;-57
2022/01/23 10:01:07;;;;;;;13.48;9.73;;;5.80;99.90;;;;;;5095651;28;20672;-61
2022/01/23 10:03:34;;;;;;;15.15;9.57;;;5.80;99.90;;;;;;5096189;28;20274;-60
2022/01/23 10:06:02;;;;;;;12.38;8.63;;;5.90;99.90;;;;;;5095339;28;20208;-58
2022/01/23 10:08:30;;;;;;;11.52;8.70;;;5.90;99.90;;;;;;5095455;28;20204;-59
2022/01/23 10:10:58;;;;;;;12.93;9.05;;;5.90;99.90;;;;;;5096017;28;20205;-60
2022/01/23 10:13:26;;;;;;;11.15;8.75;;;5.90;99.90;;;;;;5095978;28;20220;-60
2022/01/23 10:15:55;;;;;;;15.77;9.52;;;5.90;99.90;;;;;;5095652;28;20197;-60
2022/01/23 10:18:23;;;;;;;16.38;8.85;;;6.00;99.90;;;;;;5095678;28;20205;-59
2022/01/23 10:20:50;;;;;;;14.10;8.80;;;6.00;99.90;;;;;;5095467;28;20200;-58
2022/01/23 10:23:17;;;;;;;11.07;8.65;;;6.00;99.90;;;;;;5096798;28;20250;-58
2022/01/23 10:25:46;;;;;;;13.73;9.55;;;6.10;99.90;;;;;;5095271;28;20227;-59
2022/01/23 10:28:17;;;;;;;11.00;8.32;;;6.10;99.90;;;;;;5095062;28;20200;-56
2022/01/23 10:30:47;;;;;;;12.23;8.75;;;6.10;99.90;;;;;;5095279;28;20205;-57
2022/01/23 10:33:20;;;;;;;11.52;9.05;;;6.10;99.90;;;;;;5094940;28;20231;-59
2022/01/23 10:35:59;;;;;;;12.05;8.50;;;6.10;99.90;;;;;;5095328;28;20203;-59
2022/01/23 10:38:28;;;;;;;10.40;7.80;;;6.20;99.90;;;;;;5095044;28;20191;-59
2022/01/23 10:41:06;;;;;;;13.45;8.48;;;6.20;99.90;;;;;;5094486;28;20192;-57
2022/01/23 10:49:04;;;;;;;10.50;8.55;;;6.30;99.90;;;;;;5094662;28;20571;-59
2022/01/23 10:51:35;;;;;;;15.05;9.27;;;6.30;99.90;;;;;;5094079;28;20227;-59
2022/01/23 10:54:07;;;;;;;10.68;7.95;;;6.40;99.90;;;;;;5094427;28;20531;-57
2022/01/23 10:56:39;;;;;;;10.98;7.65;;;6.50;99.90;;;;;;5094199;28;20641;-59
2022/01/23 10:59:09;;;;;;;9.38;7.60;;;6.50;99.90;;;;;;5094171;28;20185;-58
2022/01/23 11:01:37;;;;;;;12.35;9.50;;;6.50;99.90;;;;;;5093959;28;20254;-58
2022/01/23 11:04:08;;;;;;;11.98;8.32;;;6.50;99.90;;;;;;5093937;28;20208;-59
2022/01/23 11:06:51;;;;;;;10.80;7.65;;;6.50;99.90;;;;;;5094570;28;20181;-58
2022/01/23 11:09:18;;;;;;;11.15;8.27;;;6.60;99.90;;;;;;5094254;28;20240;-59
2022/01/23 11:11:48;;;;;;;13.10;8.82;;;6.60;99.90;;;;;;5094314;28;20220;-57
2022/01/23 11:19:47;;;;;;;9.98;8.98;;;6.60;99.90;;;;;;5094245;28;20172;-59
2022/01/23 11:22:19;;;;;;;10.32;8.50;;;6.60;99.90;;;;;;5094074;28;20293;-58
2022/01/23 11:24:48;;;;;;;14.15;9.23;;;6.60;99.90;;;;;;5093785;28;20207;-59
2022/01/23 11:27:16;;;;;;;11.07;8.32;;;6.50;99.90;;;;;;5093852;28;20211;-59
2022/01/23 11:30:02;;;;;;;14.65;8.93;;;6.50;99.90;;;;;;5093343;28;20220;-58
2022/01/23 11:32:35;;;;;;;16.23;9.90;;;6.50;99.90;;;;;;5093778;28;20231;-61
2022/01/23 11:35:08;;;;;;;11.48;9.05;;;6.50;99.90;;;;;;5093264;28;20189;-59
2022/01/23 11:37:36;;;;;;;10.63;9.27;;;6.60;99.90;;;;;;5093677;28;20188;-58
2022/01/23 11:40:20;;;;;;;11.30;9.73;;;6.60;99.90;;;;;;5093555;28;20204;-58
2022/01/23 11:54:16;;;;;;;11.55;8.93;;;6.70;99.90;;;;;;5093445;28;20269;-58
2022/01/23 11:56:46;;;;;;;11.30;8.77;;;6.70;99.90;;;;;;5093364;28;20208;-58
2022/01/23 11:59:24;;;;;;;11.85;9.13;;;6.70;99.90;;;;;;5093149;28;20196;-58
2022/01/23 12:05:24;;;;;;;13.80;9.50;;;6.80;99.90;;;;;;5093049;28;20196;-57
2022/01/23 12:08:35;;;;;;;9.98;8.77;;;6.80;99.90;;;;;;5093178;28;20562;-58
2022/01/23 12:11:24;;;;;;;13.73;9.15;;;6.90;99.90;;;;;;5092984;28;20207;-57
2022/01/23 12:17:08;;;;;;;13.00;9.20;;;6.90;99.90;;;;;;5093463;28;20184;-58
2022/01/23 12:19:43;;;;;;;11.52;8.65;;;7.00;99.90;;;;;;5093023;28;20196;-57
2022/01/23 12:22:45;;;;;;;9.90;8.05;;;7.00;99.90;;;;;;5092664;28;20254;-58
2022/01/23 12:25:41;;;;;;;9.20;8.23;;;7.00;99.90;;;;;;5050122;28;20214;-58
2022/01/23 12:28:14;;;;;;;10.82;8.13;;;6.90;99.90;;;;;;5090798;28;20212;-58
2022/01/23 12:30:44;;;;;;;9.10;7.10;;;6.90;99.90;;;;;;5096618;28;20208;-59
2022/01/23 12:33:21;;;;;;;9.05;7.00;;;6.90;99.90;;;;;;5099394;28;20629;-59
2022/01/23 12:35:51;;;;;;;9.88;7.95;;;6.90;99.90;;;;;;5097406;28;20189;-59
2022/01/23 12:38:19;;;;;;;8.43;7.03;;;6.90;99.90;;;;;;5096921;28;20200;-56
2022/01/23 12:40:49;;;;;;;12.52;8.02;;;6.90;99.90;;;;;;5097218;28;20200;-59
2022/01/23 12:43:18;;;;;;;10.73;8.00;;;6.90;99.90;;;;;;5096636;28;20231;-60
2022/01/23 12:45:53;;;;;;;11.68;8.77;;;6.90;99.90;;;;;;5096709;28;20200;-60
2022/01/23 12:48:48;;;;;;;9.65;8.60;;;6.90;99.90;;;;;;5096498;28;20191;-59
2022/01/23 12:51:32;;;;;;;12.52;7.53;;;6.90;99.90;;;;;;5096736;28;20243;-58
2022/01/23 12:54:25;;;;;;;9.93;7.32;;;7.00;99.90;;;;;;5095646;28;20232;-59
2022/01/23 12:56:55;;;;;;;10.07;7.50;;;6.90;99.90;;;;;;5077399;28;20197;-59
2022/01/23 12:59:30;;;;;;;8.40;7.28;;;7.00;99.90;;;;;;5096657;28;20200;-59
2022/01/23 13:02:02;;;;;;;9.43;7.55;;;6.90;99.90;;;;;;5096758;28;20567;-59
2022/01/23 13:04:39;;;;;;;10.05;8.07;;;6.90;99.90;;;;;;5096530;28;20189;-59
2022/01/23 13:07:28;;;;;;;10.60;7.60;;;6.90;99.90;;;;;;5096754;28;20652;-58
2022/01/23 13:10:01;;;;;;;10.98;8.40;;;6.80;99.90;;;;;;5096597;28;20236;-60
2022/01/23 13:12:47;;;;;;;8.63;7.72;;;6.90;99.90;;;;;;5096942;28;20224;-59
2022/01/23 13:15:27;;;;;;;8.80;7.10;;;6.80;99.90;;;;;;5096397;28;20187;-59
2022/01/23 13:18:06;;;;;;;9.10;7.40;;;6.80;99.90;;;;;;5096746;28;20184;-59
2022/01/23 13:26:49;;;;;;;10.13;8.25;;;6.80;99.90;;;;;;5095980;28;20671;-58
2022/01/23 13:32:08;;;;;;;10.75;8.55;;;6.80;99.90;;;;;;5095946;28;20219;-59
2022/01/23 13:34:37;;;;;;;10.20;8.50;;;6.90;99.90;;;;;;5095703;28;20287;-60
2022/01/23 13:37:07;;;;;;;9.15;8.25;;;6.90;99.90;;;;;;5095684;28;20208;-59
2022/01/23 13:39:40;;;;;;;8.98;7.82;;;6.90;99.90;;;;;;5095495;28;20667;-59
2022/01/23 13:54:02;;;;;;;9.82;8.43;;;6.80;99.90;;;;;;5095671;28;20643;-58
2022/01/23 13:59:23;;;;;;;9.70;8.00;;;6.80;99.90;;;;;;5095415;28;20615;-59
2022/01/23 14:01:56;;;;;;;9.25;7.60;;;6.80;99.90;;;;;;5095610;28;20293;-58
2022/01/23 14:04:25;;;;;;;8.00;7.00;;;6.90;99.90;;;;;;5095408;28;20219;-58
2022/01/23 14:06:53;;;;;;;9.32;8.25;;;6.80;99.90;;;;;;5095054;28;20664;-59
2022/01/23 14:09:22;;;;;;;9.23;7.60;;;6.90;99.90;;;;;;5095589;28;20196;-59
2022/01/23 14:11:50;;;;;;;9.80;8.50;;;6.90;99.90;;;;;;5095247;28;20754;-59
2022/01/23 14:14:20;;;;;;;8.23;7.22;;;6.90;99.90;;;;;;5095189;28;20200;-62
2022/01/23 14:16:50;;;;;;;8.80;7.90;;;6.90;99.90;;;;;;5095400;28;20200;-60
2022/01/23 14:19:21;;;;;;;8.18;7.20;;;6.90;99.90;;;;;;5095574;28;20208;-59
2022/01/23 14:21:51;;;;;;;9.15;7.72;;;6.80;99.90;;;;;;5094946;28;20231;-59
2022/01/23 14:24:24;;;;;;;8.27;6.97;;;6.80;99.90;;;;;;5095545;28;20370;-59
2022/01/23 14:26:59;;;;;;;9.65;7.97;;;6.80;99.90;;;;;;5095141;28;20204;-60
2022/01/23 14:29:27;;;;;;;8.10;7.30;;;6.80;99.90;;;;;;5094877;28;20207;-60
2022/01/23 14:32:09;;;;;;;8.82;7.78;;;6.80;99.90;;;;;;5094929;28;20235;-59
2022/01/23 14:34:38;;;;;;;10.18;8.30;;;6.80;99.90;;;;;;5095100;28;20200;-58
2022/01/23 14:37:07;;;;;;;10.10;8.40;;;6.80;99.90;;;;;;5095678;28;20632;-59
2022/01/23 14:39:35;;;;;;;9.45;8.48;;;6.80;99.90;;;;;;5095496;28;20238;-57
2022/01/23 14:42:11;;;;;;;10.25;8.20;;;6.80;99.90;;;;;;5094431;28;20303;-59
2022/01/23 14:44:39;;;;;;;8.95;7.65;;;6.70;99.90;;;;;;5094843;28;20184;-59
2022/01/23 14:47:08;;;;;;;10.95;7.90;;;6.70;99.90;;;;;;5094651;28;20200;-60
2022/01/23 14:49:38;;;;;;;8.68;7.55;;;6.70;99.90;;;;;;5095574;28;20583;-59
2022/01/23 14:52:10;;;;;;;12.93;9.25;;;6.70;99.90;;;;;;5094809;28;20646;-60
2022/01/23 14:54:37;;;;;;;11.23;7.70;;;6.70;99.90;;;;;;5095210;28;20185;-61
2022/01/23 14:57:08;;;;;;;9.48;7.85;;;6.70;99.90;;;;;;5095242;28;20196;-60
2022/01/23 14:59:37;;;;;;;11.50;9.35;;;6.60;99.90;;;;;;5095550;28;20239;-60
2022/01/23 15:02:06;;;;;;;9.18;8.30;;;6.70;99.90;;;;;;5096226;28;20250;-60
2022/01/23 15:04:45;;;;;;;11.85;9.23;;;6.60;99.90;;;;;;5095430;28;20227;-58
2022/01/23 15:07:16;;;;;;;12.43;9.27;;;6.60;99.90;;;;;;5094779;28;20291;-61
2022/01/23 15:09:44;;;;;;;10.38;9.05;;;6.70;99.90;;;;;;5094139;28;20241;-59
2022/01/23 15:12:12;;;;;;;12.10;9.55;;;6.70;99.90;;;;;;5093952;28;20224;-59
2022/01/23 15:14:39;;;;;;;10.57;8.00;;;6.60;99.90;;;;;;5094302;28;20230;-57
2022/01/23 15:17:06;;;;;;;11.05;9.40;;;6.60;99.90;;;;;;5093911;28;20200;-59
2022/01/23 15:19:35;;;;;;;10.45;9.35;;;6.60;99.90;;;;;;5094197;28;20233;-60
2022/01/23 15:22:04;;;;;;;13.05;10.40;;;6.60;99.90;;;;;;5093839;28;20319;-60
2022/01/23 15:24:31;;;;;;;11.65;9.75;;;6.60;99.90;;;;;;5094216;28;20246;-60
2022/01/23 15:26:58;;;;;;;10.88;9.20;;;6.60;99.90;;;;;;5096905;28;20200;-60
2022/01/23 15:29:25;;;;;;;12.13;9.88;;;6.60;99.90;;;;;;5095751;28;20565;-59
2022/01/23 15:31:52;;;;;;;11.25;8.65;;;6.60;99.90;;;;;;5096110;28;20228;-61
2022/01/23 15:34:20;;;;;;;11.00;9.15;;;6.50;99.90;;;;;;5096501;28;20211;-59
2022/01/23 15:36:47;;;;;;;12.70;9.75;;;6.60;99.90;;;;;;5097078;28;20204;-60
2022/01/23 15:39:16;;;;;;;12.20;9.82;;;6.50;99.90;;;;;;5097327;28;20201;-60
2022/01/23 15:41:44;;;;;;;10.30;9.20;;;6.50;99.90;;;;;;5097537;28;20593;-60
2022/01/23 15:44:11;;;;;;;10.63;9.07;;;6.50;99.90;;;;;;5098127;28;20216;-59
2022/01/23 15:46:38;;;;;;;11.55;10.23;;;6.50;99.90;;;;;;5097009;28;20577;-60
2022/01/23 15:49:05;;;;;;;10.40;8.23;;;6.50;99.90;;;;;;5097170;28;20278;-58
2022/01/23 15:51:33;;;;;;;13.80;9.93;;;6.50;99.90;;;;;;5098035;28;20224;-58
2022/01/23 15:54:00;;;;;;;11.68;8.82;;;6.50;99.90;;;;;;5095892;28;20204;-58
2022/01/23 15:56:28;;;;;;;11.60;8.77;;;6.50;99.90;;;;;;5094437;28;20300;-60
2022/01/23 15:58:55;;;;;;;11.15;8.60;;;6.50;99.90;;;;;;5093533;28;20318;-58
2022/01/23 16:01:23;;;;;;;9.93;8.05;;;6.40;99.90;;;;;;5094300;28;20220;-59
2022/01/23 16:03:50;;;;;;;13.15;10.07;;;6.40;99.90;;;;;;5093700;28;20223;-60
2022/01/23 16:06:17;;;;;;;12.70;9.15;;;6.40;99.90;;;;;;5093284;28;20287;-60
2022/01/23 16:08:44;;;;;;;12.65;9.35;;;6.40;99.90;;;;;;5093632;28;20203;-58
2022/01/23 16:11:12;;;;;;;14.38;10.38;;;6.40;99.90;;;;;;5092900;28;20236;-59
2022/01/23 16:13:41;;;;;;;14.82;10.50;;;6.40;99.90;;;;;;5093448;28;20202;-60